Hilltop, North Carolina
Current Conditions -  °F | °C
As of 9:54 PM on Friday 19 Dec 2014 (Local Time) from KGSO Reporting Station
Broken Clouds Broken Clouds  
Wind Chill: 41°   Ceiling: 25000
Heat Index: 41°   Visibility: 10mi
Dew Point: 25°   Wind: 0mph
Humidity: 53%   Direction: NA
Pressure: 30.17"   Gusts: NA
Location:  36.011°N, 79.8751°W
Report Text: KGSO 200254Z 00000KT 10SM BKN250 05/M04 A3017 RMK AO2 SLP220 T00501039 50009
Loading
Personal Weather Stations






























Interactive Weather Map New forecast layout! Learn more

10-Day Weather Forecast

Advertisements
Track Severe Weather on mobile